Time;durP1;ratioP1;P1;durP2;ratioP2;P2;SDS_P1;SDS_P2;PMS_P1;PMS_P2;Temp;Humidity;BMP_temperature;BMP_pressure;BME280_temperature;BME280_humidity;BME280_pressure;Samples;Min_cycle;Max_cycle;Signal;HPM_P1;HPM_P2
2021/09/20 00:02:00;;;;;;;7.57;2.28;;;12.00;99.90;;;10.46;81.35;100411.91;4964934;28;20030;-74
2021/09/20 00:04:26;;;;;;;2.75;1.58;;;11.90;99.90;;;10.45;82.12;100431.25;4975466;28;20695;-74
2021/09/20 00:06:52;;;;;;;4.68;2.00;;;11.90;99.90;;;10.51;80.91;100438.84;4974287;28;20060;-74
2021/09/20 00:09:18;;;;;;;5.30;2.17;;;12.00;99.90;;;10.52;81.64;100432.66;4957117;28;20525;-75
2021/09/20 00:11:44;;;;;;;6.75;2.00;;;12.00;99.90;;;10.50;83.27;100444.22;4993141;28;20092;-75
2021/09/20 00:14:10;;;;;;;4.75;1.83;;;12.00;99.90;;;10.47;84.90;100450.44;4992269;28;20067;-74
2021/09/20 00:16:36;;;;;;;4.72;2.05;;;11.80;99.90;;;10.24;87.47;100449.81;4992284;28;20071;-75
2021/09/20 00:19:02;;;;;;;3.03;1.85;;;11.70;99.90;;;10.17;88.80;100455.44;4983448;28;20029;-75
2021/09/20 00:21:28;;;;;;;4.43;2.00;;;11.70;99.90;;;10.10;89.47;100461.94;4991778;28;20188;-74
2021/09/20 00:23:54;;;;;;;4.35;2.20;;;11.50;99.90;;;9.98;89.61;100464.25;4993227;28;20398;-75
2021/09/20 00:26:21;;;;;;;6.15;1.98;;;11.50;99.90;;;10.01;90.08;100458.81;4954340;28;20126;-75
2021/09/20 00:28:47;;;;;;;6.88;2.20;;;11.60;99.90;;;10.02;91.10;100465.81;4969483;28;20436;-74
2021/09/20 00:31:13;;;;;;;3.58;1.75;;;11.50;99.90;;;9.96;91.35;100463.47;4962955;28;20945;-75
2021/09/20 00:33:39;;;;;;;9.93;2.08;;;11.50;99.90;;;9.97;92.41;100480.94;4964290;28;20025;-75
2021/09/20 00:36:05;;;;;;;3.97;1.95;;;11.50;99.90;;;9.92;92.92;100477.69;4963428;28;20074;-75
2021/09/20 00:38:32;;;;;;;4.20;1.95;;;11.40;99.90;;;9.85;93.55;100481.53;4972318;28;20521;-74
2021/09/20 00:40:58;;;;;;;4.18;2.25;;;11.40;99.90;;;9.88;92.98;100488.44;4972070;28;20401;-74
2021/09/20 00:43:24;;;;;;;6.82;2.33;;;11.30;99.90;;;9.94;92.92;100486.34;4964060;28;20066;-74
2021/09/20 00:45:50;;;;;;;3.63;1.98;;;11.50;99.90;;;10.04;93.10;100527.09;4962674;28;20072;-74
2021/09/20 00:48:16;;;;;;;5.85;2.22;;;11.50;99.90;;;10.20;91.34;100489.50;4956252;28;20482;-74
2021/09/20 00:50:42;;;;;;;3.70;2.10;;;11.70;99.90;;;10.16;92.88;100478.28;4965717;28;20042;-74
2021/09/20 00:53:08;;;;;;;3.33;2.13;;;11.70;99.90;;;10.26;91.54;100478.69;4955560;28;20049;-74
2021/09/20 00:55:35;;;;;;;6.50;2.30;;;11.70;99.90;;;10.27;90.99;100475.13;4963003;28;20093;-74
2021/09/20 00:58:01;;;;;;;3.90;2.28;;;11.70;99.90;;;10.27;91.42;100475.13;4954972;28;20065;-74
2021/09/20 01:00:28;;;;;;;3.60;2.10;;;11.70;99.90;;;10.26;90.60;100465.53;4954722;28;20078;-74
2021/09/20 01:02:54;;;;;;;3.42;2.17;;;11.70;99.90;;;10.28;89.76;100461.03;4970986;28;20698;-74
2021/09/20 01:05:21;;;;;;;3.08;1.90;;;11.80;99.90;;;10.44;86.91;100455.88;4970544;28;20041;-74
2021/09/20 01:07:47;;;;;;;5.28;1.95;;;11.80;99.90;;;10.49;86.31;100445.13;4950757;28;20042;-74
2021/09/20 01:10:13;;;;;;;3.58;1.95;;;11.90;99.90;;;10.56;85.06;100441.22;4955790;28;20120;-74
2021/09/20 01:12:39;;;;;;;5.32;2.13;;;11.90;99.90;;;10.57;84.82;100430.63;4969590;28;20034;-74
2021/09/20 01:15:06;;;;;;;6.85;1.70;;;12.00;99.90;;;10.59;84.94;100446.38;4987294;28;20034;-75
2021/09/20 01:17:32;;;;;;;3.10;1.75;;;12.00;99.90;;;10.60;84.65;100442.78;4954224;28;20053;-74
2021/09/20 01:19:59;;;;;;;4.80;1.98;;;12.10;99.90;;;10.60;83.65;100433.09;4952941;28;20548;-74
2021/09/20 01:22:28;;;;;;;4.10;2.10;;;12.00;99.90;;;10.59;84.08;100449.00;4970225;28;20487;-75
2021/09/20 01:24:55;;;;;;;3.60;2.03;;;12.00;99.90;;;10.54;84.21;100445.72;4964331;28;20057;-74
2021/09/20 01:27:22;;;;;;;5.30;2.03;;;12.00;99.90;;;10.59;83.75;100449.84;4954706;28;20052;-75
2021/09/20 01:29:48;;;;;;;4.35;1.85;;;12.10;99.90;;;10.51;84.25;100443.25;4961208;28;20525;-75
2021/09/20 01:32:15;;;;;;;5.28;2.17;;;12.00;99.90;;;10.44;86.11;100451.47;4971978;28;20023;-75
2021/09/20 01:34:41;;;;;;;7.47;2.22;;;11.90;99.90;;;10.34;88.10;100460.75;4972339;28;20031;-74
2021/09/20 01:37:07;;;;;;;3.30;1.67;;;11.80;99.90;;;10.26;90.40;100465.53;4968782;28;20060;-74
2021/09/20 01:39:36;;;;;;;7.30;2.10;;;11.80;99.90;;;10.37;88.57;100472.94;4963560;28;20057;-74
2021/09/20 01:42:04;;;;;;;4.28;2.17;;;11.80;99.90;;;10.25;90.32;100477.81;4975042;28;20027;-75
2021/09/20 01:44:30;;;;;;;3.60;2.10;;;11.70;99.90;;;10.28;89.49;100482.09;4989349;28;20049;-75
2021/09/20 01:46:58;;;;;;;3.85;1.95;;;11.80;99.90;;;10.32;87.85;100462.59;4980380;28;20034;-75
2021/09/20 01:49:27;;;;;;;6.85;2.00;;;11.90;99.90;;;10.45;85.12;100453.19;4999909;28;20076;-74
2021/09/20 01:51:56;;;;;;;3.90;1.80;;;11.90;99.90;;;10.45;85.14;100447.03;4989414;28;20087;-74
2021/09/20 01:54:22;;;;;;;6.47;2.00;;;11.90;99.90;;;10.35;86.06;100444.03;4981864;28;20029;-74
2021/09/20 01:56:49;;;;;;;5.00;1.90;;;11.90;99.90;;;10.45;85.38;100442.66;4989653;28;20030;-74
2021/09/20 01:59:15;;;;;;;6.15;1.70;;;11.90;99.90;;;10.51;84.53;100445.91;4990752;28;20064;-74
2021/09/20 02:01:41;;;;;;;3.50;1.65;;;11.90;99.90;;;10.45;84.75;100442.66;4990698;28;20532;-74
2021/09/20 02:04:07;;;;;;;4.07;1.70;;;11.90;99.90;;;10.43;84.25;100427.84;4989341;28;20162;-74
2021/09/20 02:06:33;;;;;;;3.28;1.52;;;11.90;99.90;;;10.48;83.84;100431.13;4982985;28;20367;-74
2021/09/20 02:09:00;;;;;;;4.05;1.63;;;11.90;99.90;;;10.51;82.89;100427.47;4989517;28;20106;-74
2021/09/20 02:11:26;;;;;;;4.68;2.08;;;12.00;99.90;;;10.49;82.05;100422.28;4990021;28;20489;-74
2021/09/20 02:13:54;;;;;;;7.57;1.90;;;12.00;99.90;;;10.51;84.30;100430.09;4989384;28;20095;-74
2021/09/20 02:16:21;;;;;;;5.30;2.00;;;11.90;99.90;;;10.33;87.31;100434.53;4975142;28;20147;-74
2021/09/20 02:18:47;;;;;;;7.30;2.08;;;11.80;99.90;;;10.26;88.55;100455.84;4973104;28;20075;-74
2021/09/20 02:21:13;;;;;;;3.15;1.73;;;11.80;99.90;;;10.41;87.80;100461.28;4974712;28;20026;-74
2021/09/20 02:23:40;;;;;;;4.68;2.10;;;11.80;99.90;;;10.26;88.81;100462.91;4989640;28;20033;-74
2021/09/20 02:26:06;;;;;;;7.38;2.08;;;11.70;99.90;;;10.17;90.18;100468.59;5008196;28;20437;-75
2021/09/20 02:28:36;;;;;;;3.42;1.92;;;11.70;99.90;;;10.18;89.10;100458.00;4993477;28;20125;-74
2021/09/20 02:31:08;;;;;;;3.85;1.65;;;11.70;99.90;;;10.18;87.09;100449.25;4960391;28;20398;-74
2021/09/20 02:33:36;;;;;;;5.47;1.67;;;11.70;99.90;;;10.27;85.13;100431.22;4993591;28;20037;-74
2021/09/20 02:36:05;;;;;;;6.07;1.80;;;11.70;99.90;;;10.34;83.64;100421.28;4986777;28;20026;-74
2021/09/20 02:38:31;;;;;;;5.90;1.67;;;11.80;99.90;;;10.43;82.07;100412.94;4982922;28;20402;-74
2021/09/20 02:40:58;;;;;;;4.32;1.77;;;11.80;99.90;;;10.48;81.70;100411.84;4970189;28;20087;-74
2021/09/20 02:43:24;;;;;;;3.10;1.33;;;11.90;99.90;;;10.53;81.56;100407.19;4994087;28;20042;-74
2021/09/20 02:45:51;;;;;;;7.38;1.77;;;11.90;99.90;;;10.63;81.00;100416.31;4993915;28;20293;-74
2021/09/20 02:48:18;;;;;;;6.65;2.10;;;12.00;99.90;;;10.54;81.96;100419.41;4976558;28;20060;-74
2021/09/20 02:50:44;;;;;;;2.50;1.85;;;12.00;99.90;;;10.55;81.98;100427.22;4991090;28;20395;-74
2021/09/20 02:53:10;;;;;;;5.85;1.58;;;12.00;99.90;;;10.61;80.59;100421.66;4994031;28;20065;-74
2021/09/20 02:55:36;;;;;;;3.75;1.80;;;12.00;99.90;;;10.55;81.71;100431.66;4976016;28;20048;-74
2021/09/20 02:58:03;;;;;;;2.47;1.45;;;12.00;99.90;;;10.54;81.49;100436.06;4970328;28;20076;-74
2021/09/20 03:00:29;;;;;;;3.47;1.58;;;12.00;99.90;;;10.61;81.71;100431.34;4975965;28;20068;-74
2021/09/20 03:02:55;;;;;;;4.15;1.85;;;12.00;99.90;;;10.53;83.49;100436.13;4977906;28;20092;-74
2021/09/20 03:05:21;;;;;;;3.00;1.50;;;12.00;99.90;;;10.58;83.16;100431.47;4989991;28;20394;-74
2021/09/20 03:07:47;;;;;;;4.05;1.70;;;12.00;99.90;;;10.50;84.36;100441.56;4965972;28;20072;-74
2021/09/20 03:10:13;;;;;;;4.97;1.55;;;12.00;99.90;;;10.47;84.55;100442.56;4968877;28;20038;-74
2021/09/20 03:12:40;;;;;;;3.95;1.88;;;12.00;99.90;;;10.48;86.06;100448.69;4992283;28;20045;-74
2021/09/20 03:15:07;;;;;;;3.03;1.52;;;11.90;99.90;;;10.45;86.27;100447.91;4976916;28;20401;-74
2021/09/20 03:17:33;;;;;;;3.40;1.67;;;11.90;99.90;;;10.42;86.52;100442.78;4966851;28;20115;-74
2021/09/20 03:19:59;;;;;;;4.47;1.58;;;11.80;99.90;;;10.30;88.17;100448.66;4987748;28;24969;-74
2021/09/20 03:22:26;;;;;;;2.83;1.63;;;11.70;99.90;;;10.23;89.19;100463.03;4968072;28;20035;-74
2021/09/20 03:24:53;;;;;;;3.88;1.48;;;11.70;99.90;;;10.14;90.14;100443.28;4999802;28;20026;-74
2021/09/20 03:27:20;;;;;;;2.05;1.63;;;11.60;99.90;;;10.18;90.32;100452.75;4993687;28;20037;-74
2021/09/20 03:29:46;;;;;;;2.75;1.95;;;11.70;99.90;;;10.20;89.98;100460.56;4984251;28;20739;-75
2021/09/20 03:32:12;;;;;;;8.45;1.80;;;11.70;99.90;;;10.24;90.45;100464.75;4993408;28;20078;-74
2021/09/20 03:34:38;;;;;;;7.78;2.00;;;11.70;99.90;;;10.22;90.55;100451.66;4994928;28;20075;-74
2021/09/20 03:37:04;;;;;;;9.23;1.98;;;11.70;99.90;;;10.30;90.30;100453.94;4991507;28;20096;-74
2021/09/20 03:39:30;;;;;;;4.72;1.85;;;11.80;99.90;;;10.33;90.45;100453.78;4962029;28;20119;-74
2021/09/20 03:41:56;;;;;;;3.38;1.58;;;11.80;99.90;;;10.36;89.97;100444.88;4965827;28;20049;-74
2021/09/20 03:44:22;;;;;;;3.35;2.00;;;11.80;99.90;;;10.43;89.53;100441.88;4975643;28;20051;-74
2021/09/20 03:46:48;;;;;;;6.68;1.80;;;11.90;99.90;;;10.50;88.60;100449.47;4947212;28;20416;-74
2021/09/20 03:49:14;;;;;;;4.30;1.98;;;11.90;99.90;;;10.57;87.50;100437.69;4970290;28;20046;-74
2021/09/20 03:51:41;;;;;;;5.00;1.88;;;12.00;99.90;;;10.52;88.16;100435.28;4964947;28;20076;-74
2021/09/20 03:54:07;;;;;;;5.22;1.70;;;12.00;99.90;;;10.65;86.91;100411.81;4963238;28;20027;-74
2021/09/20 03:56:33;;;;;;;7.15;2.10;;;12.10;99.90;;;10.70;85.62;100422.97;4962773;28;20022;-74
2021/09/20 03:58:59;;;;;;;2.97;1.55;;;12.10;99.90;;;10.84;84.94;100427.50;4972684;28;20034;-75
2021/09/20 04:01:25;;;;;;;4.88;1.98;;;12.20;99.90;;;10.81;85.62;100410.06;4971880;28;20035;-74
2021/09/20 04:03:51;;;;;;;3.53;2.08;;;12.20;99.90;;;10.71;86.68;100427.28;4973595;28;20080;-74
2021/09/20 04:06:17;;;;;;;3.83;1.85;;;12.20;99.90;;;10.85;86.09;100430.06;4972124;28;20034;-74
2021/09/20 04:08:43;;;;;;;2.15;1.58;;;12.20;99.90;;;10.85;86.13;100439.75;4955529;28;20033;-74
2021/09/20 04:11:09;;;;;;;5.53;2.08;;;12.30;99.90;;;10.79;86.68;100440.91;4946912;28;20441;-74
2021/09/20 04:13:35;;;;;;;6.10;2.10;;;12.20;99.90;;;10.77;87.87;100447.19;4971534;28;20026;-74
2021/09/20 04:16:02;;;;;;;3.65;1.98;;;12.20;99.90;;;10.74;87.88;100448.22;4964839;28;20061;-74
2021/09/20 04:18:29;;;;;;;6.82;1.88;;;12.20;99.90;;;10.64;89.13;100457.50;4963824;28;20061;-74
2021/09/20 04:20:56;;;;;;;5.03;2.20;;;12.10;99.90;;;10.58;89.84;100456.06;4963687;28;20038;-74
2021/09/20 04:23:25;;;;;;;6.57;2.50;;;12.00;99.90;;;10.53;91.26;100460.69;4960589;28;20588;-74
2021/09/20 04:25:53;;;;;;;4.38;1.95;;;12.00;99.90;;;10.44;92.01;100464.63;4973006;28;20030;-74
2021/09/20 04:28:21;;;;;;;2.65;2.00;;;12.00;99.90;;;10.48;91.61;100467.97;4956139;28;20023;-74
2021/09/20 04:30:47;;;;;;;5.53;2.17;;;11.90;99.90;;;10.42;92.83;100473.53;4962420;28;20058;-74
2021/09/20 04:33:18;;;;;;;5.60;1.90;;;11.90;99.90;;;10.33;93.47;100476.63;4988162;28;20065;-74
2021/09/20 04:35:45;;;;;;;8.95;2.00;;;11.80;99.90;;;10.38;93.68;100485.13;4971364;28;20372;-74
2021/09/20 04:38:12;;;;;;;4.22;2.00;;;11.90;99.90;;;10.42;93.14;100484.91;4962568;28;20041;-74
2021/09/20 04:40:39;;;;;;;5.70;2.22;;;11.90;99.90;;;10.48;93.13;100485.56;4981428;28;20531;-74
2021/09/20 04:43:08;;;;;;;2.78;1.90;;;11.90;99.90;;;10.41;93.43;100470.06;4983413;28;20450;-74
2021/09/20 04:45:38;;;;;;;3.55;1.83;;;11.90;99.90;;;10.52;92.56;100477.41;4990544;28;20152;-74
2021/09/20 04:48:09;;;;;;;5.65;2.08;;;12.00;99.90;;;10.51;91.95;100461.69;4990641;28;20072;-74
2021/09/20 04:50:44;;;;;;;6.43;2.05;;;11.90;99.90;;;10.60;89.40;100461.22;4968840;28;20042;-74
2021/09/20 04:53:13;;;;;;;3.40;1.70;;;12.10;99.90;;;10.64;88.26;100436.44;4989714;28;20044;-74
2021/09/20 04:55:39;;;;;;;3.13;1.67;;;12.00;99.90;;;10.67;87.31;100437.13;4989708;28;20395;-73
2021/09/20 04:58:08;;;;;;;6.28;2.22;;;12.10;99.90;;;10.65;86.29;100444.28;4989022;28;20091;-74
2021/09/20 05:00:37;;;;;;;7.45;2.03;;;12.10;99.90;;;10.70;85.80;100430.84;4968498;28;20073;-74
2021/09/20 05:03:03;;;;;;;6.65;1.80;;;12.10;99.90;;;10.64;85.79;100437.28;4958621;28;20026;-74
2021/09/20 05:05:29;;;;;;;2.63;1.75;;;12.10;99.90;;;10.61;86.30;100444.50;4983659;28;20618;-74
2021/09/20 05:07:56;;;;;;;6.60;2.33;;;12.00;99.90;;;10.58;86.18;100436.75;4990032;28;20110;-73
2021/09/20 05:10:22;;;;;;;4.13;1.77;;;12.10;99.90;;;10.64;84.74;100441.69;4988790;28;20060;-74
2021/09/20 05:12:48;;;;;;;8.05;1.65;;;12.10;99.90;;;10.61;85.27;100445.34;4988941;28;20036;-74
2021/09/20 05:15:16;;;;;;;5.35;2.10;;;12.00;99.90;;;10.52;86.79;100442.31;5000819;28;20045;-74
2021/09/20 05:17:44;;;;;;;8.35;2.20;;;12.00;99.90;;;10.48;87.38;100470.59;4988652;28;20034;-74
2021/09/20 05:20:12;;;;;;;4.93;2.10;;;11.90;99.90;;;10.45;88.24;100473.38;4989915;28;20033;-75
2021/09/20 05:22:39;;;;;;;4.72;1.80;;;11.90;99.90;;;10.34;90.69;100480.94;4990697;28;20062;-74
2021/09/20 05:25:06;;;;;;;6.57;2.35;;;11.80;99.90;;;10.30;91.34;100485.50;4991292;28;20056;-74
2021/09/20 05:27:34;;;;;;;3.25;2.03;;;11.80;99.90;;;10.31;91.96;100496.91;4962471;28;20234;-74
2021/09/20 05:30:02;;;;;;;3.70;1.77;;;11.80;99.90;;;10.29;92.89;100504.88;4945970;28;20095;-74
2021/09/20 05:32:28;;;;;;;8.38;2.20;;;11.80;99.90;;;10.28;93.06;100497.88;4970877;28;20118;-74
2021/09/20 05:34:54;;;;;;;8.80;2.47;;;11.70;99.90;;;10.19;94.34;100516.72;4970809;28;20019;-74
2021/09/20 05:37:21;;;;;;;6.85;1.85;;;11.70;99.90;;;10.31;94.11;100523.22;4972344;28;20650;-74
2021/09/20 05:39:47;;;;;;;4.13;1.88;;;11.70;99.90;;;10.32;92.52;100522.28;4992167;28;20052;-74
2021/09/20 05:42:15;;;;;;;4.70;1.75;;;11.80;99.90;;;10.37;91.40;100515.88;4973430;28;20059;-74
2021/09/20 05:44:43;;;;;;;6.78;2.03;;;11.80;99.90;;;10.37;90.29;100486.09;4972490;28;20385;-73
2021/09/20 05:47:10;;;;;;;6.07;2.38;;;11.80;99.90;;;10.36;90.93;100497.53;4989802;28;20018;-74
2021/09/20 05:49:36;;;;;;;3.40;1.55;;;11.80;99.90;;;10.44;87.91;100471.69;4992828;28;20033;-74
2021/09/20 05:52:03;;;;;;;6.57;2.55;;;11.90;99.90;;;10.43;87.93;100478.72;4989919;28;20033;-74
2021/09/20 05:54:29;;;;;;;4.35;2.03;;;11.90;99.90;;;10.48;87.29;100467.97;4999965;28;20173;-74
2021/09/20 05:56:55;;;;;;;4.80;1.90;;;11.90;99.90;;;10.46;87.52;100454.88;4972356;28;20555;-74
2021/09/20 05:59:21;;;;;;;5.95;2.00;;;11.90;99.90;;;10.46;88.48;100475.09;4989821;28;20145;-74
2021/09/20 06:01:47;;;;;;;4.03;1.77;;;12.00;99.90;;;10.49;88.39;100479.34;4992000;28;20112;-74
2021/09/20 06:04:14;;;;;;;4.00;1.83;;;11.90;99.90;;;10.48;89.50;100478.50;4989175;28;20052;-74
2021/09/20 06:06:40;;;;;;;6.00;2.10;;;11.90;99.90;;;10.53;89.05;100494.91;5005654;28;20512;-74
2021/09/20 06:09:06;;;;;;;4.20;1.80;;;12.00;99.90;;;10.57;89.21;100491.19;4989002;28;20042;-74
2021/09/20 06:11:32;;;;;;;4.55;1.88;;;12.10;99.90;;;10.64;89.40;100492.56;4963912;28;20421;-74
2021/09/20 06:13:58;;;;;;;7.38;2.05;;;12.10;99.90;;;10.72;89.89;100500.09;4965141;28;20023;-74
2021/09/20 06:16:24;;;;;;;3.10;1.80;;;12.20;99.90;;;10.84;89.41;100507.38;4990529;28;20042;-74
2021/09/20 06:18:50;;;;;;;3.40;2.13;;;12.40;99.90;;;11.09;87.16;100501.69;4966039;28;20467;-74
2021/09/20 06:21:17;;;;;;;3.80;2.22;;;12.50;99.90;;;11.19;86.69;100506.50;4976253;28;20414;-75
2021/09/20 06:23:43;;;;;;;4.25;1.90;;;12.60;99.90;;;11.30;85.65;100493.59;4964609;28;20061;-74
2021/09/20 06:26:09;;;;;;;9.98;1.88;;;12.70;99.90;;;11.39;85.88;100498.34;4974402;28;20040;-74
2021/09/20 06:28:35;;;;;;;4.03;1.88;;;12.80;99.90;;;11.52;86.31;100517.00;4950658;28;20031;-74
2021/09/20 06:31:04;;;;;;;3.28;2.10;;;13.00;99.90;;;11.67;84.77;100510.91;4964008;28;20031;-74
2021/09/20 06:33:34;;;;;;;6.93;2.63;;;13.00;99.90;;;11.67;86.05;100513.53;4966786;28;20023;-74
2021/09/20 06:36:02;;;;;;;6.72;2.50;;;13.00;99.90;;;11.67;86.39;100518.81;4963308;28;20101;-74
2021/09/20 06:38:29;;;;;;;4.95;2.28;;;13.10;99.90;;;11.64;84.84;100508.44;4954832;28;20058;-74
2021/09/20 06:40:55;;;;;;;6.07;2.50;;;13.10;99.90;;;11.69;85.72;100518.75;4965906;28;20038;-74
2021/09/20 06:43:21;;;;;;;4.53;2.13;;;13.10;99.90;;;11.77;85.88;100526.22;5005631;28;20034;-74
2021/09/20 06:45:47;;;;;;;9.10;2.58;;;13.30;99.90;;;11.99;85.33;100534.69;4968342;28;20027;-74
2021/09/20 06:48:13;;;;;;;7.28;2.92;;;13.30;99.90;;;11.90;84.17;100530.78;4960018;28;20074;-73
2021/09/20 06:50:40;;;;;;;6.65;2.53;;;13.40;99.90;;;12.03;83.86;100530.97;4962774;28;20399;-74
2021/09/20 06:53:06;;;;;;;2.92;2.00;;;13.50;99.90;;;12.10;84.50;100534.09;4960565;28;20870;-74
2021/09/20 06:55:32;;;;;;;4.53;2.78;;;13.80;99.90;;;12.87;81.98;100551.69;4964610;28;20438;-74
2021/09/20 06:57:59;;;;;;;4.80;1.95;;;14.40;99.90;;;13.14;80.01;100535.09;4961297;28;20387;-74
2021/09/20 07:00:29;;;;;;;4.45;2.15;;;14.60;99.90;;;13.12;79.53;100514.03;4979359;28;20125;-74
2021/09/20 07:02:55;;;;;;;9.80;2.90;;;14.60;99.90;;;13.02;79.37;100530.56;4983647;28;20038;-74
2021/09/20 07:05:21;;;;;;;4.45;2.47;;;14.50;99.90;;;13.22;79.48;100537.31;4964089;28;20035;-74
2021/09/20 07:07:48;;;;;;;8.98;2.08;;;14.70;99.90;;;13.13;78.50;100533.38;4969825;28;20065;-74
2021/09/20 07:10:16;;;;;;;4.43;2.28;;;14.70;99.90;;;12.98;79.62;100529.91;4973696;28;20050;-74
2021/09/20 07:12:44;;;;;;;5.53;2.38;;;14.70;99.90;;;13.21;79.39;100549.66;4986248;28;20029;-74
2021/09/20 07:15:12;;;;;;;6.18;2.25;;;14.80;99.90;;;13.69;78.64;100555.56;4993902;28;20117;-74
2021/09/20 07:17:39;;;;;;;4.80;2.03;;;15.20;99.90;;;14.37;73.98;100564.50;4992167;28;20457;-74
2021/09/20 07:20:06;;;;;;;4.25;2.00;;;15.50;99.90;;;14.25;73.83;100554.69;4975293;28;20394;-74
2021/09/20 07:22:33;;;;;;;4.65;2.05;;;15.60;99.90;;;14.67;74.79;100592.63;4975250;28;20113;-74
2021/09/20 07:24:59;;;;;;;5.78;2.17;;;16.10;99.90;;;15.33;70.42;100586.41;4993229;28;20045;-75
2021/09/20 07:27:25;;;;;;;5.35;1.80;;;16.50;99.90;;;15.33;71.30;100604.09;4975298;28;20030;-74
2021/09/20 07:29:51;;;;;;;3.83;2.03;;;16.80;99.90;;;16.16;68.26;100624.88;4970678;28;20098;-74
2021/09/20 07:32:17;;;;;;;3.97;1.90;;;17.20;99.90;;;15.53;68.21;100576.22;4970894;28;20110;-75
2021/09/20 07:34:43;;;;;;;4.25;2.00;;;16.90;99.90;;;15.08;69.68;100602.28;4972740;28;20022;-74
2021/09/20 07:37:09;;;;;;;6.97;1.98;;;16.70;99.90;;;15.20;71.38;100604.06;4965056;28;20051;-74
2021/09/20 07:39:36;;;;;;;6.47;1.90;;;16.70;99.90;;;15.17;70.21;100596.34;4972055;28;20049;-74
2021/09/20 07:42:02;;;;;;;3.00;1.90;;;16.80;99.90;;;16.05;67.65;100652.22;4971975;28;20119;-75
2021/09/20 07:44:28;;;;;;;3.58;2.08;;;17.30;99.90;;;16.41;66.70;100650.53;4965260;28;20033;-75
2021/09/20 07:46:55;;;;;;;3.67;1.58;;;18.10;99.90;;;17.85;59.50;100678.84;4963159;28;20479;-75
2021/09/20 07:49:21;;;;;;;3.63;1.77;;;18.40;99.90;;;16.82;59.26;100652.00;4962512;28;20047;-75
2021/09/20 07:51:47;;;;;;;3.67;1.98;;;17.80;99.90;;;15.89;63.44;100630.34;4956465;28;20109;-75
2021/09/20 07:54:13;;;;;;;9.05;2.20;;;17.90;99.90;;;17.19;63.17;100671.41;4966214;28;20038;-74
2021/09/20 07:56:39;;;;;;;3.65;2.10;;;18.70;99.90;;;18.04;59.03;100688.91;4961609;28;20034;-75
2021/09/20 07:59:05;;;;;;;6.90;2.10;;;18.70;99.90;;;17.39;61.10;100683.19;4956141;28;20023;-75
2021/09/20 08:01:31;;;;;;;7.20;2.08;;;18.80;99.90;;;18.10;62.17;100741.72;4956658;28;20038;-75
2021/09/20 08:03:57;;;;;;;5.25;2.25;;;18.90;99.90;;;17.82;60.89;100687.06;4973858;28;20032;-75
2021/09/20 08:06:24;;;;;;;3.63;2.15;;;18.40;99.90;;;16.18;64.32;100662.81;4962001;28;20081;-76
2021/09/20 08:08:51;;;;;;;4.43;1.90;;;17.90;99.90;;;16.31;66.36;100687.56;4963159;28;20018;-75
2021/09/20 08:11:17;;;;;;;5.70;2.03;;;17.40;99.90;;;15.96;66.86;100668.78;4971237;28;20021;-74
2021/09/20 08:13:43;;;;;;;4.78;1.70;;;17.00;99.90;;;15.24;70.83;100660.44;4964265;28;20184;-75
2021/09/20 08:16:09;;;;;;;3.55;1.95;;;17.00;99.90;;;15.85;69.40;100685.44;4962065;28;20042;-74
2021/09/20 08:18:35;;;;;;;3.67;2.03;;;17.50;99.90;;;16.65;66.47;100694.88;4972201;28;20122;-74
2021/09/20 08:21:02;;;;;;;6.30;2.30;;;17.70;99.90;;;16.80;67.12;100701.78;4962139;28;20034;-74
2021/09/20 08:23:28;;;;;;;4.90;2.08;;;18.00;99.90;;;16.33;66.72;100667.03;4970521;28;20022;-74
2021/09/20 08:25:56;;;;;;;3.78;1.92;;;17.30;99.90;;;15.47;70.39;100650.94;4969407;28;20368;-74
2021/09/20 08:28:22;;;;;;;5.53;1.75;;;16.80;99.90;;;14.80;72.52;100645.69;4970504;28;20047;-74
2021/09/20 08:30:48;;;;;;;4.55;2.42;;;16.10;99.90;;;14.18;75.56;100640.78;4968993;28;20039;-74
2021/09/20 08:33:14;;;;;;;4.53;2.40;;;16.00;99.90;;;14.25;74.23;100642.09;4955970;28;20049;-75
2021/09/20 08:35:40;;;;;;;5.78;2.58;;;15.80;99.90;;;14.55;74.63;100647.25;4989349;28;22602;-75
2021/09/20 08:38:06;;;;;;;3.28;2.30;;;15.60;99.90;;;14.06;76.85;100651.19;4994468;28;20026;-75
2021/09/20 08:40:34;;;;;;;5.60;2.00;;;15.50;99.90;;;14.12;76.69;100642.00;4976157;28;20037;-74
2021/09/20 08:43:01;;;;;;;6.75;2.20;;;15.50;99.90;;;14.35;74.92;100648.50;4990929;28;20026;-74
2021/09/20 08:45:29;;;;;;;4.82;1.95;;;15.80;99.90;;;14.46;73.63;100639.88;4956750;28;20042;-74
2021/09/20 08:47:58;;;;;;;4.65;1.98;;;16.20;99.90;;;15.09;71.19;100635.78;4990774;28;20050;-74
2021/09/20 08:50:30;;;;;;;7.88;2.10;;;16.10;99.90;;;14.36;73.66;100629.88;4975045;28;20046;-74
2021/09/20 08:52:57;;;;;;;6.07;2.00;;;15.80;99.90;;;14.14;74.72;100630.38;4989900;28;20500;-74
2021/09/20 08:55:24;;;;;;;5.97;2.30;;;15.60;99.90;;;14.16;76.86;100644.34;4966952;28;20030;-74
2021/09/20 08:57:50;;;;;;;5.68;2.58;;;15.70;99.90;;;14.48;76.05;100644.13;4965311;28;20805;-74
2021/09/20 09:00:17;;;;;;;3.83;2.03;;;15.80;99.90;;;14.23;74.56;100633.38;4991641;28;20036;-74
2021/09/20 09:03:04;;;;;;;4.97;2.25;;;15.50;99.90;;;13.67;77.81;100636.84;4947241;28;20038;-74
2021/09/20 09:05:59;;;;;;;4.45;1.83;;;15.20;99.90;;;13.81;78.41;100646.56;4945738;28;20046;-73
2021/09/20 09:08:54;;;;;;;3.72;2.20;;;15.20;99.90;;;13.70;78.46;100639.28;4931210;28;20042;-73
2021/09/20 09:11:49;;;;;;;4.35;2.47;;;15.10;99.90;;;13.90;80.37;100666.31;4948107;28;20132;-74
2021/09/20 09:14:44;;;;;;;3.45;2.40;;;15.10;99.90;;;13.54;80.20;100622.63;4948282;28;20037;-74
2021/09/20 09:17:46;;;;;;;6.35;2.67;;;15.00;99.90;;;13.64;80.37;100634.34;4953439;28;20044;-74
2021/09/20 09:20:19;;;;;;;4.82;2.15;;;15.00;99.90;;;13.42;82.22;100637.44;4935002;28;20048;-74
2021/09/20 09:23:16;;;;;;;4.28;2.22;;;14.90;99.90;;;13.51;80.92;100621.03;4949587;28;20050;-74
2021/09/20 09:26:08;;;;;;;5.63;2.63;;;14.80;99.90;;;13.52;81.67;100645.69;4952571;28;20579;-74
2021/09/20 09:29:12;;;;;;;5.60;2.40;;;14.90;99.90;;;13.32;80.89;100631.84;4927287;28;20129;-74
2021/09/20 09:31:41;;;;;;;6.00;2.05;;;14.60;99.90;;;13.21;81.15;100626.31;4950278;28;20076;-74
2021/09/20 09:34:24;;;;;;;6.78;2.42;;;14.60;99.90;;;13.11;82.40;100627.81;4991233;28;20037;-74
2021/09/20 09:37:19;;;;;;;7.00;2.58;;;14.50;99.90;;;12.88;83.02;100629.16;4955331;28;20046;-74
2021/09/20 09:40:14;;;;;;;4.03;2.50;;;14.40;99.90;;;13.05;82.69;100639.59;4947647;28;20046;-74
2021/09/20 09:43:02;;;;;;;7.13;1.92;;;14.50;99.90;;;13.08;80.83;100620.06;4958578;28;20070;-74
2021/09/20 09:46:33;;;;;;;9.20;2.60;;;14.30;99.90;;;12.75;81.87;100610.50;4950761;28;20053;-73
2021/09/20 09:49:20;;;;;;;4.38;2.30;;;14.10;99.90;;;12.69;83.27;100629.34;4949854;28;20129;-74
2021/09/20 09:52:20;;;;;;;5.88;2.28;;;14.00;99.90;;;12.59;84.15;100629.03;4932155;28;20048;-74
2021/09/20 09:55:33;;;;;;;9.07;2.80;;;14.00;99.90;;;12.57;84.48;100630.03;4940576;28;20072;-73
2021/09/20 09:58:41;;;;;;;5.10;2.22;;;13.90;99.90;;;12.62;84.41;100628.84;4953389;28;20040;-74
2021/09/20 10:01:28;;;;;;;8.07;2.70;;;13.90;99.90;;;12.52;85.79;100619.75;4934413;28;20041;-74
2021/09/20 10:04:59;;;;;;;4.57;2.30;;;13.90;99.90;;;12.60;84.67;100624.59;4931608;28;20030;-74
2021/09/20 10:07:51;;;;;;;9.10;2.78;;;13.90;99.90;;;12.50;84.78;100626.88;4932137;28;20521;-74
2021/09/20 10:11:08;;;;;;;7.40;2.85;;;13.90;99.90;;;12.48;83.78;100616.44;4925361;28;20050;-74
2021/09/20 10:13:42;;;;;;;4.40;2.30;;;13.90;99.90;;;12.48;84.31;100627.00;4952065;28;20486;-74
2021/09/20 10:16:25;;;;;;;4.57;2.38;;;13.80;99.90;;;12.31;84.43;100620.03;4949665;28;20037;-73
2021/09/20 10:19:21;;;;;;;8.13;2.40;;;13.70;99.90;;;12.39;84.95;100622.22;4913657;28;20406;-73
2021/09/20 10:22:31;;;;;;;5.43;2.45;;;13.70;99.90;;;12.34;83.18;100612.88;4929506;28;20053;-74
2021/09/20 10:26:01;;;;;;;4.05;2.05;;;13.70;99.90;;;12.34;83.97;100613.72;4930587;28;20031;-73